sensor_id;sensor_type;location;lat;lon;timestamp;P1;durP1;ratioP1;P2;durP2;ratioP2
16973;SDS011;8603;46.944;7.412;2023-07-24T00:01:09;18.92;;;14.10;;
16973;SDS011;8603;46.944;7.412;2023-07-24T00:03:35;18.23;;;12.98;;
16973;SDS011;8603;46.944;7.412;2023-07-24T00:06:01;18.35;;;13.77;;
16973;SDS011;8603;46.944;7.412;2023-07-24T00:08:26;18.67;;;13.40;;
16973;SDS011;8603;46.944;7.412;2023-07-24T00:10:52;16.48;;;12.95;;
16973;SDS011;8603;46.944;7.412;2023-07-24T00:13:18;19.92;;;13.30;;
16973;SDS011;8603;46.944;7.412;2023-07-24T00:15:43;15.63;;;12.02;;
16973;SDS011;8603;46.944;7.412;2023-07-24T00:18:09;14.95;;;11.75;;
16973;SDS011;8603;46.944;7.412;2023-07-24T00:20:35;15.77;;;12.23;;
16973;SDS011;8603;46.944;7.412;2023-07-24T00:23:00;14.90;;;11.30;;
16973;SDS011;8603;46.944;7.412;2023-07-24T00:25:26;17.48;;;11.45;;
16973;SDS011;8603;46.944;7.412;2023-07-24T00:27:51;16.70;;;11.80;;
16973;SDS011;8603;46.944;7.412;2023-07-24T00:30:17;16.67;;;11.27;;
16973;SDS011;8603;46.944;7.412;2023-07-24T00:32:43;16.45;;;11.65;;
16973;SDS011;8603;46.944;7.412;2023-07-24T00:35:14;16.70;;;12.82;;
16973;SDS011;8603;46.944;7.412;2023-07-24T00:37:40;15.57;;;12.02;;
16973;SDS011;8603;46.944;7.412;2023-07-24T00:40:06;16.58;;;10.98;;
16973;SDS011;8603;46.944;7.412;2023-07-24T00:42:32;14.18;;;10.45;;
16973;SDS011;8603;46.944;7.412;2023-07-24T00:44:57;14.93;;;10.63;;
16973;SDS011;8603;46.944;7.412;2023-07-24T00:47:23;16.83;;;11.32;;
16973;SDS011;8603;46.944;7.412;2023-07-24T00:49:51;16.17;;;11.68;;
16973;SDS011;8603;46.944;7.412;2023-07-24T00:52:17;17.35;;;11.93;;
16973;SDS011;8603;46.944;7.412;2023-07-24T00:54:42;15.75;;;10.50;;
16973;SDS011;8603;46.944;7.412;2023-07-24T00:57:10;16.73;;;12.15;;
16973;SDS011;8603;46.944;7.412;2023-07-24T00:59:35;16.35;;;11.27;;
16973;SDS011;8603;46.944;7.412;2023-07-24T01:02:01;15.93;;;11.68;;
16973;SDS011;8603;46.944;7.412;2023-07-24T01:04:27;17.88;;;12.02;;
16973;SDS011;8603;46.944;7.412;2023-07-24T01:06:52;17.10;;;11.50;;
16973;SDS011;8603;46.944;7.412;2023-07-24T01:09:18;18.90;;;11.88;;
16973;SDS011;8603;46.944;7.412;2023-07-24T01:11:46;15.73;;;11.35;;
16973;SDS011;8603;46.944;7.412;2023-07-24T01:14:21;17.02;;;11.15;;
16973;SDS011;8603;46.944;7.412;2023-07-24T01:16:51;18.20;;;11.43;;
16973;SDS011;8603;46.944;7.412;2023-07-24T01:19:36;19.67;;;14.05;;
16973;SDS011;8603;46.944;7.412;2023-07-24T01:27:52;17.08;;;12.02;;
16973;SDS011;8603;46.944;7.412;2023-07-24T01:30:18;17.85;;;11.73;;
16973;SDS011;8603;46.944;7.412;2023-07-24T01:32:44;18.35;;;12.55;;
16973;SDS011;8603;46.944;7.412;2023-07-24T01:35:10;19.95;;;12.77;;
16973;SDS011;8603;46.944;7.412;2023-07-24T01:37:36;15.40;;;11.43;;
16973;SDS011;8603;46.944;7.412;2023-07-24T01:40:05;20.02;;;11.95;;
16973;SDS011;8603;46.944;7.412;2023-07-24T01:42:33;16.15;;;11.27;;
16973;SDS011;8603;46.944;7.412;2023-07-24T01:44:59;18.63;;;11.93;;
16973;SDS011;8603;46.944;7.412;2023-07-24T01:47:27;21.05;;;12.20;;
16973;SDS011;8603;46.944;7.412;2023-07-24T01:49:52;17.95;;;11.85;;
16973;SDS011;8603;46.944;7.412;2023-07-24T01:52:18;15.90;;;11.90;;
16973;SDS011;8603;46.944;7.412;2023-07-24T01:54:44;16.20;;;11.32;;
16973;SDS011;8603;46.944;7.412;2023-07-24T01:57:09;18.88;;;12.02;;
16973;SDS011;8603;46.944;7.412;2023-07-24T01:59:35;19.15;;;11.38;;
16973;SDS011;8603;46.944;7.412;2023-07-24T02:02:00;15.88;;;11.52;;
16973;SDS011;8603;46.944;7.412;2023-07-24T02:04:26;16.38;;;11.60;;
16973;SDS011;8603;46.944;7.412;2023-07-24T02:06:51;17.85;;;11.48;;
16973;SDS011;8603;46.944;7.412;2023-07-24T02:09:17;19.65;;;12.70;;
16973;SDS011;8603;46.944;7.412;2023-07-24T02:11:43;17.98;;;13.05;;
16973;SDS011;8603;46.944;7.412;2023-07-24T02:14:08;16.27;;;12.35;;
16973;SDS011;8603;46.944;7.412;2023-07-24T02:16:35;17.30;;;12.02;;
16973;SDS011;8603;46.944;7.412;2023-07-24T02:19:01;16.98;;;11.27;;
16973;SDS011;8603;46.944;7.412;2023-07-24T02:21:26;16.10;;;11.77;;
16973;SDS011;8603;46.944;7.412;2023-07-24T02:23:52;16.50;;;11.13;;
16973;SDS011;8603;46.944;7.412;2023-07-24T02:26:17;16.85;;;12.02;;
16973;SDS011;8603;46.944;7.412;2023-07-24T02:28:43;15.18;;;10.25;;
16973;SDS011;8603;46.944;7.412;2023-07-24T02:31:09;17.77;;;12.02;;
16973;SDS011;8603;46.944;7.412;2023-07-24T02:33:34;18.48;;;13.40;;
16973;SDS011;8603;46.944;7.412;2023-07-24T02:36:00;17.85;;;12.98;;
16973;SDS011;8603;46.944;7.412;2023-07-24T02:38:26;18.92;;;14.13;;
16973;SDS011;8603;46.944;7.412;2023-07-24T02:40:51;23.67;;;13.65;;
16973;SDS011;8603;46.944;7.412;2023-07-24T02:43:17;19.40;;;12.82;;
16973;SDS011;8603;46.944;7.412;2023-07-24T02:45:42;18.80;;;12.43;;
16973;SDS011;8603;46.944;7.412;2023-07-24T02:48:08;16.55;;;11.40;;
16973;SDS011;8603;46.944;7.412;2023-07-24T02:50:34;16.80;;;10.73;;
16973;SDS011;8603;46.944;7.412;2023-07-24T02:53:00;17.70;;;11.43;;
16973;SDS011;8603;46.944;7.412;2023-07-24T02:55:26;15.15;;;11.05;;
16973;SDS011;8603;46.944;7.412;2023-07-24T02:57:53;15.50;;;11.07;;
16973;SDS011;8603;46.944;7.412;2023-07-24T03:00:19;18.98;;;12.18;;
16973;SDS011;8603;46.944;7.412;2023-07-24T03:02:44;17.73;;;11.75;;
16973;SDS011;8603;46.944;7.412;2023-07-24T03:05:10;15.40;;;11.10;;
16973;SDS011;8603;46.944;7.412;2023-07-24T03:07:35;15.90;;;10.80;;
16973;SDS011;8603;46.944;7.412;2023-07-24T03:10:01;20.55;;;12.25;;
16973;SDS011;8603;46.944;7.412;2023-07-24T03:12:27;16.05;;;10.73;;
16973;SDS011;8603;46.944;7.412;2023-07-24T03:14:53;16.15;;;11.95;;
16973;SDS011;8603;46.944;7.412;2023-07-24T03:17:18;15.50;;;11.00;;
16973;SDS011;8603;46.944;7.412;2023-07-24T03:19:44;16.38;;;11.38;;
16973;SDS011;8603;46.944;7.412;2023-07-24T03:22:09;16.60;;;11.27;;
16973;SDS011;8603;46.944;7.412;2023-07-24T03:24:35;17.33;;;11.13;;
16973;SDS011;8603;46.944;7.412;2023-07-24T03:27:01;18.48;;;11.23;;
16973;SDS011;8603;46.944;7.412;2023-07-24T03:29:27;16.65;;;10.90;;
16973;SDS011;8603;46.944;7.412;2023-07-24T03:31:53;15.23;;;10.32;;
16973;SDS011;8603;46.944;7.412;2023-07-24T03:34:18;17.38;;;11.15;;
16973;SDS011;8603;46.944;7.412;2023-07-24T03:36:44;16.40;;;11.40;;
16973;SDS011;8603;46.944;7.412;2023-07-24T03:39:10;14.65;;;10.65;;
16973;SDS011;8603;46.944;7.412;2023-07-24T03:41:39;16.30;;;10.95;;
16973;SDS011;8603;46.944;7.412;2023-07-24T03:44:06;13.65;;;9.63;;
16973;SDS011;8603;46.944;7.412;2023-07-24T03:46:32;11.95;;;8.13;;
16973;SDS011;8603;46.944;7.412;2023-07-24T03:49:01;14.43;;;8.80;;
16973;SDS011;8603;46.944;7.412;2023-07-24T03:51:26;12.23;;;8.00;;
16973;SDS011;8603;46.944;7.412;2023-07-24T03:53:52;11.43;;;7.80;;
16973;SDS011;8603;46.944;7.412;2023-07-24T03:56:17;11.52;;;7.57;;
16973;SDS011;8603;46.944;7.412;2023-07-24T03:58:43;13.00;;;7.70;;
16973;SDS011;8603;46.944;7.412;2023-07-24T04:01:08;10.85;;;7.80;;
16973;SDS011;8603;46.944;7.412;2023-07-24T04:03:34;12.95;;;8.02;;
16973;SDS011;8603;46.944;7.412;2023-07-24T04:06:00;10.77;;;8.40;;
16973;SDS011;8603;46.944;7.412;2023-07-24T04:08:26;12.88;;;8.30;;
16973;SDS011;8603;46.944;7.412;2023-07-24T04:10:51;15.30;;;7.78;;
16973;SDS011;8603;46.944;7.412;2023-07-24T04:13:17;10.25;;;7.28;;
16973;SDS011;8603;46.944;7.412;2023-07-24T04:15:44;11.52;;;7.25;;
16973;SDS011;8603;46.944;7.412;2023-07-24T04:18:10;10.98;;;6.90;;
16973;SDS011;8603;46.944;7.412;2023-07-24T04:20:36;10.55;;;7.80;;
16973;SDS011;8603;46.944;7.412;2023-07-24T04:23:02;10.07;;;7.30;;
16973;SDS011;8603;46.944;7.412;2023-07-24T04:25:27;8.98;;;7.38;;
16973;SDS011;8603;46.944;7.412;2023-07-24T04:27:53;7.82;;;5.53;;
16973;SDS011;8603;46.944;7.412;2023-07-24T04:30:18;6.00;;;4.53;;
16973;SDS011;8603;46.944;7.412;2023-07-24T04:32:44;5.55;;;4.53;;
16973;SDS011;8603;46.944;7.412;2023-07-24T04:35:11;4.50;;;3.95;;
16973;SDS011;8603;46.944;7.412;2023-07-24T04:37:36;5.88;;;3.88;;
16973;SDS011;8603;46.944;7.412;2023-07-24T04:40:02;6.05;;;4.38;;
16973;SDS011;8603;46.944;7.412;2023-07-24T04:42:28;7.32;;;4.55;;
16973;SDS011;8603;46.944;7.412;2023-07-24T04:44:54;8.20;;;5.38;;
16973;SDS011;8603;46.944;7.412;2023-07-24T04:47:19;7.22;;;5.70;;
16973;SDS011;8603;46.944;7.412;2023-07-24T04:49:45;8.50;;;5.70;;
16973;SDS011;8603;46.944;7.412;2023-07-24T04:52:10;8.48;;;5.78;;
16973;SDS011;8603;46.944;7.412;2023-07-24T04:54:36;6.78;;;5.80;;
16973;SDS011;8603;46.944;7.412;2023-07-24T04:57:01;7.30;;;5.80;;
16973;SDS011;8603;46.944;7.412;2023-07-24T04:59:27;8.38;;;5.93;;
16973;SDS011;8603;46.944;7.412;2023-07-24T05:01:53;7.55;;;5.82;;
16973;SDS011;8603;46.944;7.412;2023-07-24T05:04:18;8.93;;;6.00;;
16973;SDS011;8603;46.944;7.412;2023-07-24T05:06:44;8.02;;;6.15;;
16973;SDS011;8603;46.944;7.412;2023-07-24T05:09:09;9.38;;;6.50;;
16973;SDS011;8603;46.944;7.412;2023-07-24T05:11:35;8.07;;;6.20;;
16973;SDS011;8603;46.944;7.412;2023-07-24T05:14:01;8.20;;;6.20;;
16973;SDS011;8603;46.944;7.412;2023-07-24T05:16:26;9.10;;;6.65;;
16973;SDS011;8603;46.944;7.412;2023-07-24T05:18:52;9.68;;;7.25;;
16973;SDS011;8603;46.944;7.412;2023-07-24T05:21:17;11.02;;;7.15;;
16973;SDS011;8603;46.944;7.412;2023-07-24T05:23:43;10.13;;;7.35;;
16973;SDS011;8603;46.944;7.412;2023-07-24T05:26:08;8.32;;;6.57;;
16973;SDS011;8603;46.944;7.412;2023-07-24T05:28:34;7.53;;;4.82;;
16973;SDS011;8603;46.944;7.412;2023-07-24T05:31:03;7.97;;;5.40;;
16973;SDS011;8603;46.944;7.412;2023-07-24T05:33:30;5.93;;;4.38;;
16973;SDS011;8603;46.944;7.412;2023-07-24T05:35:59;7.00;;;5.10;;
16973;SDS011;8603;46.944;7.412;2023-07-24T05:38:26;6.63;;;4.47;;
16973;SDS011;8603;46.944;7.412;2023-07-24T05:40:55;4.70;;;4.30;;
16973;SDS011;8603;46.944;7.412;2023-07-24T05:43:25;8.10;;;4.88;;
16973;SDS011;8603;46.944;7.412;2023-07-24T05:45:52;6.25;;;4.25;;
16973;SDS011;8603;46.944;7.412;2023-07-24T05:48:18;8.75;;;4.68;;
16973;SDS011;8603;46.944;7.412;2023-07-24T05:50:43;6.68;;;4.07;;
16973;SDS011;8603;46.944;7.412;2023-07-24T05:53:09;6.00;;;4.03;;
16973;SDS011;8603;46.944;7.412;2023-07-24T05:55:35;5.13;;;4.15;;
16973;SDS011;8603;46.944;7.412;2023-07-24T05:58:00;5.65;;;4.50;;
16973;SDS011;8603;46.944;7.412;2023-07-24T06:00:26;5.00;;;3.92;;
16973;SDS011;8603;46.944;7.412;2023-07-24T06:02:52;4.47;;;3.92;;
16973;SDS011;8603;46.944;7.412;2023-07-24T06:05:18;5.25;;;4.13;;
16973;SDS011;8603;46.944;7.412;2023-07-24T06:07:45;8.50;;;4.55;;
16973;SDS011;8603;46.944;7.412;2023-07-24T06:10:10;4.82;;;3.92;;
16973;SDS011;8603;46.944;7.412;2023-07-24T06:12:36;5.43;;;3.63;;
16973;SDS011;8603;46.944;7.412;2023-07-24T06:15:02;3.97;;;3.58;;
16973;SDS011;8603;46.944;7.412;2023-07-24T06:17:28;5.85;;;3.63;;
16973;SDS011;8603;46.944;7.412;2023-07-24T06:19:53;4.88;;;3.88;;
16973;SDS011;8603;46.944;7.412;2023-07-24T06:22:19;4.35;;;3.70;;
16973;SDS011;8603;46.944;7.412;2023-07-24T06:24:44;4.30;;;3.55;;
16973;SDS011;8603;46.944;7.412;2023-07-24T06:27:10;5.68;;;3.65;;
16973;SDS011;8603;46.944;7.412;2023-07-24T06:29:35;5.05;;;3.28;;
16973;SDS011;8603;46.944;7.412;2023-07-24T06:32:01;4.15;;;3.35;;
16973;SDS011;8603;46.944;7.412;2023-07-24T06:34:28;5.38;;;3.63;;
16973;SDS011;8603;46.944;7.412;2023-07-24T06:36:53;5.13;;;4.25;;
16973;SDS011;8603;46.944;7.412;2023-07-24T06:39:19;4.78;;;4.03;;
16973;SDS011;8603;46.944;7.412;2023-07-24T06:41:45;5.63;;;3.80;;
16973;SDS011;8603;46.944;7.412;2023-07-24T06:44:11;4.85;;;3.70;;
16973;SDS011;8603;46.944;7.412;2023-07-24T06:46:36;4.10;;;3.70;;
16973;SDS011;8603;46.944;7.412;2023-07-24T06:49:02;5.35;;;4.35;;
16973;SDS011;8603;46.944;7.412;2023-07-24T06:51:27;7.38;;;4.65;;
16973;SDS011;8603;46.944;7.412;2023-07-24T06:53:53;5.55;;;4.40;;
16973;SDS011;8603;46.944;7.412;2023-07-24T06:56:18;5.45;;;4.38;;
16973;SDS011;8603;46.944;7.412;2023-07-24T06:58:44;5.22;;;4.30;;
16973;SDS011;8603;46.944;7.412;2023-07-24T07:01:09;6.05;;;4.78;;
16973;SDS011;8603;46.944;7.412;2023-07-24T07:03:35;7.55;;;4.82;;
16973;SDS011;8603;46.944;7.412;2023-07-24T07:06:01;6.75;;;4.45;;
16973;SDS011;8603;46.944;7.412;2023-07-24T07:08:27;6.10;;;4.80;;
16973;SDS011;8603;46.944;7.412;2023-07-24T07:10:57;5.75;;;4.30;;
16973;SDS011;8603;46.944;7.412;2023-07-24T07:13:23;5.70;;;3.92;;
16973;SDS011;8603;46.944;7.412;2023-07-24T07:15:49;4.75;;;3.60;;
16973;SDS011;8603;46.944;7.412;2023-07-24T07:18:14;4.78;;;3.95;;
16973;SDS011;8603;46.944;7.412;2023-07-24T07:20:46;5.60;;;3.72;;
16973;SDS011;8603;46.944;7.412;2023-07-24T07:23:13;5.72;;;3.97;;
16973;SDS011;8603;46.944;7.412;2023-07-24T07:25:39;5.90;;;3.95;;
16973;SDS011;8603;46.944;7.412;2023-07-24T07:28:04;5.00;;;3.95;;
16973;SDS011;8603;46.944;7.412;2023-07-24T07:30:30;5.50;;;4.78;;
16973;SDS011;8603;46.944;7.412;2023-07-24T07:32:55;4.28;;;3.78;;
16973;SDS011;8603;46.944;7.412;2023-07-24T07:35:21;5.60;;;4.05;;
16973;SDS011;8603;46.944;7.412;2023-07-24T07:37:46;4.50;;;3.90;;
16973;SDS011;8603;46.944;7.412;2023-07-24T07:40:12;4.88;;;4.10;;
16973;SDS011;8603;46.944;7.412;2023-07-24T07:42:38;6.25;;;4.50;;
16973;SDS011;8603;46.944;7.412;2023-07-24T07:45:03;6.20;;;4.35;;
16973;SDS011;8603;46.944;7.412;2023-07-24T07:47:29;5.22;;;4.70;;
16973;SDS011;8603;46.944;7.412;2023-07-24T07:49:55;5.40;;;4.30;;
16973;SDS011;8603;46.944;7.412;2023-07-24T07:52:20;5.20;;;4.13;;
16973;SDS011;8603;46.944;7.412;2023-07-24T07:54:47;5.65;;;4.40;;
16973;SDS011;8603;46.944;7.412;2023-07-24T07:57:13;5.95;;;4.50;;
16973;SDS011;8603;46.944;7.412;2023-07-24T07:59:39;5.97;;;4.65;;
16973;SDS011;8603;46.944;7.412;2023-07-24T08:02:05;5.28;;;4.65;;
16973;SDS011;8603;46.944;7.412;2023-07-24T08:04:31;4.40;;;3.95;;
16973;SDS011;8603;46.944;7.412;2023-07-24T08:06:57;5.10;;;4.20;;
16973;SDS011;8603;46.944;7.412;2023-07-24T08:09:23;5.35;;;3.75;;
16973;SDS011;8603;46.944;7.412;2023-07-24T08:11:49;5.90;;;4.40;;
16973;SDS011;8603;46.944;7.412;2023-07-24T08:14:16;4.80;;;4.07;;
16973;SDS011;8603;46.944;7.412;2023-07-24T08:16:42;4.43;;;3.55;;
16973;SDS011;8603;46.944;7.412;2023-07-24T08:19:07;4.53;;;3.85;;
16973;SDS011;8603;46.944;7.412;2023-07-24T08:21:33;4.95;;;4.07;;
16973;SDS011;8603;46.944;7.412;2023-07-24T08:23:58;4.70;;;4.20;;
16973;SDS011;8603;46.944;7.412;2023-07-24T08:26:25;5.22;;;4.20;;
16973;SDS011;8603;46.944;7.412;2023-07-24T08:28:51;4.43;;;4.03;;
16973;SDS011;8603;46.944;7.412;2023-07-24T08:31:17;5.63;;;4.00;;
16973;SDS011;8603;46.944;7.412;2023-07-24T08:33:42;4.72;;;3.95;;
16973;SDS011;8603;46.944;7.412;2023-07-24T08:36:08;5.18;;;4.22;;
16973;SDS011;8603;46.944;7.412;2023-07-24T08:38:37;5.60;;;4.05;;
16973;SDS011;8603;46.944;7.412;2023-07-24T08:43:31;6.70;;;4.40;;
16973;SDS011;8603;46.944;7.412;2023-07-24T08:45:58;5.43;;;4.53;;
16973;SDS011;8603;46.944;7.412;2023-07-24T08:48:35;5.50;;;4.25;;
16973;SDS011;8603;46.944;7.412;2023-07-24T08:51:02;4.07;;;3.67;;
16973;SDS011;8603;46.944;7.412;2023-07-24T08:53:38;4.63;;;4.13;;
16973;SDS011;8603;46.944;7.412;2023-07-24T08:56:06;6.03;;;4.18;;
16973;SDS011;8603;46.944;7.412;2023-07-24T08:58:33;5.00;;;4.13;;
16973;SDS011;8603;46.944;7.412;2023-07-24T09:01:00;8.60;;;4.43;;
16973;SDS011;8603;46.944;7.412;2023-07-24T09:03:26;4.60;;;4.13;;
16973;SDS011;8603;46.944;7.412;2023-07-24T09:05:53;5.47;;;3.60;;
16973;SDS011;8603;46.944;7.412;2023-07-24T09:08:32;5.85;;;4.78;;
16973;SDS011;8603;46.944;7.412;2023-07-24T09:10:59;6.97;;;4.40;;
16973;SDS011;8603;46.944;7.412;2023-07-24T09:13:26;6.07;;;4.22;;
16973;SDS011;8603;46.944;7.412;2023-07-24T09:15:53;4.10;;;3.70;;
16973;SDS011;8603;46.944;7.412;2023-07-24T09:18:18;4.03;;;3.63;;
16973;SDS011;8603;46.944;7.412;2023-07-24T09:20:44;5.68;;;3.83;;
16973;SDS011;8603;46.944;7.412;2023-07-24T09:23:11;4.88;;;4.38;;
16973;SDS011;8603;46.944;7.412;2023-07-24T09:25:38;5.82;;;3.97;;
16973;SDS011;8603;46.944;7.412;2023-07-24T09:28:08;6.35;;;4.45;;
16973;SDS011;8603;46.944;7.412;2023-07-24T09:30:38;6.32;;;4.80;;
16973;SDS011;8603;46.944;7.412;2023-07-24T09:33:05;6.93;;;4.60;;
16973;SDS011;8603;46.944;7.412;2023-07-24T09:35:31;4.80;;;4.30;;
16973;SDS011;8603;46.944;7.412;2023-07-24T09:38:07;5.57;;;4.47;;
16973;SDS011;8603;46.944;7.412;2023-07-24T09:40:44;5.05;;;3.97;;
16973;SDS011;8603;46.944;7.412;2023-07-24T09:43:16;6.38;;;4.43;;
16973;SDS011;8603;46.944;7.412;2023-07-24T09:45:53;7.45;;;4.50;;
16973;SDS011;8603;46.944;7.412;2023-07-24T09:48:20;5.10;;;4.60;;
16973;SDS011;8603;46.944;7.412;2023-07-24T09:50:55;5.72;;;4.88;;
16973;SDS011;8603;46.944;7.412;2023-07-24T09:56:18;5.93;;;5.32;;
16973;SDS011;8603;46.944;7.412;2023-07-24T09:58:45;6.82;;;5.28;;
16973;SDS011;8603;46.944;7.412;2023-07-24T10:01:13;6.40;;;5.50;;
16973;SDS011;8603;46.944;7.412;2023-07-24T10:03:43;6.95;;;5.03;;
16973;SDS011;8603;46.944;7.412;2023-07-24T10:06:12;6.93;;;5.38;;
16973;SDS011;8603;46.944;7.412;2023-07-24T10:08:39;7.03;;;5.18;;
16973;SDS011;8603;46.944;7.412;2023-07-24T10:11:05;6.22;;;5.13;;
16973;SDS011;8603;46.944;7.412;2023-07-24T10:13:33;7.25;;;5.10;;
16973;SDS011;8603;46.944;7.412;2023-07-24T10:16:01;6.55;;;5.15;;
16973;SDS011;8603;46.944;7.412;2023-07-24T10:18:30;7.55;;;5.10;;
16973;SDS011;8603;46.944;7.412;2023-07-24T10:21:05;10.23;;;5.00;;
16973;SDS011;8603;46.944;7.412;2023-07-24T10:23:36;6.45;;;5.15;;
16973;SDS011;8603;46.944;7.412;2023-07-24T10:26:06;5.72;;;4.80;;
16973;SDS011;8603;46.944;7.412;2023-07-24T10:28:36;7.20;;;5.70;;
16973;SDS011;8603;46.944;7.412;2023-07-24T10:31:03;5.80;;;4.95;;
16973;SDS011;8603;46.944;7.412;2023-07-24T10:33:45;7.70;;;5.38;;
16973;SDS011;8603;46.944;7.412;2023-07-24T10:36:11;7.18;;;5.30;;
16973;SDS011;8603;46.944;7.412;2023-07-24T10:38:39;7.85;;;5.35;;
16973;SDS011;8603;46.944;7.412;2023-07-24T10:41:07;7.47;;;5.75;;
16973;SDS011;8603;46.944;7.412;2023-07-24T10:43:40;6.65;;;5.00;;
16973;SDS011;8603;46.944;7.412;2023-07-24T10:46:10;7.55;;;5.40;;
16973;SDS011;8603;46.944;7.412;2023-07-24T10:48:37;8.23;;;5.90;;
16973;SDS011;8603;46.944;7.412;2023-07-24T10:51:07;6.78;;;5.20;;
16973;SDS011;8603;46.944;7.412;2023-07-24T10:53:34;7.80;;;6.35;;
16973;SDS011;8603;46.944;7.412;2023-07-24T10:56:01;6.03;;;5.30;;
16973;SDS011;8603;46.944;7.412;2023-07-24T10:58:27;6.95;;;5.40;;
16973;SDS011;8603;46.944;7.412;2023-07-24T11:00:52;5.97;;;5.30;;
16973;SDS011;8603;46.944;7.412;2023-07-24T11:03:18;6.22;;;5.35;;
16973;SDS011;8603;46.944;7.412;2023-07-24T11:05:45;6.22;;;5.20;;
16973;SDS011;8603;46.944;7.412;2023-07-24T11:08:12;6.07;;;5.05;;
16973;SDS011;8603;46.944;7.412;2023-07-24T11:10:46;6.50;;;5.45;;
16973;SDS011;8603;46.944;7.412;2023-07-24T11:13:17;7.20;;;5.57;;
16973;SDS011;8603;46.944;7.412;2023-07-24T11:15:44;8.02;;;5.38;;
16973;SDS011;8603;46.944;7.412;2023-07-24T11:18:09;6.70;;;4.95;;
16973;SDS011;8603;46.944;7.412;2023-07-24T11:20:36;7.13;;;5.57;;
16973;SDS011;8603;46.944;7.412;2023-07-24T11:23:11;7.50;;;5.43;;
16973;SDS011;8603;46.944;7.412;2023-07-24T11:25:37;6.82;;;5.43;;
16973;SDS011;8603;46.944;7.412;2023-07-24T11:28:06;6.15;;;5.00;;
16973;SDS011;8603;46.944;7.412;2023-07-24T11:30:34;6.55;;;5.28;;
16973;SDS011;8603;46.944;7.412;2023-07-24T11:33:00;6.65;;;4.80;;
16973;SDS011;8603;46.944;7.412;2023-07-24T11:35:28;7.40;;;5.38;;
16973;SDS011;8603;46.944;7.412;2023-07-24T11:37:54;7.53;;;5.38;;
16973;SDS011;8603;46.944;7.412;2023-07-24T11:40:20;5.22;;;4.72;;
16973;SDS011;8603;46.944;7.412;2023-07-24T11:42:46;5.38;;;4.45;;
16973;SDS011;8603;46.944;7.412;2023-07-24T11:45:13;6.05;;;4.82;;
16973;SDS011;8603;46.944;7.412;2023-07-24T11:47:47;5.25;;;4.38;;
16973;SDS011;8603;46.944;7.412;2023-07-24T11:50:14;4.93;;;4.35;;
16973;SDS011;8603;46.944;7.412;2023-07-24T11:55:14;6.25;;;5.05;;
16973;SDS011;8603;46.944;7.412;2023-07-24T11:57:40;7.68;;;4.82;;
16973;SDS011;8603;46.944;7.412;2023-07-24T12:00:17;5.68;;;4.00;;
16973;SDS011;8603;46.944;7.412;2023-07-24T12:02:44;4.40;;;3.75;;
16973;SDS011;8603;46.944;7.412;2023-07-24T12:05:10;6.65;;;4.22;;
16973;SDS011;8603;46.944;7.412;2023-07-24T12:07:36;5.88;;;4.22;;
16973;SDS011;8603;46.944;7.412;2023-07-24T12:10:02;6.07;;;4.05;;
16973;SDS011;8603;46.944;7.412;2023-07-24T12:12:45;6.65;;;4.15;;
16973;SDS011;8603;46.944;7.412;2023-07-24T12:15:12;5.63;;;4.40;;
16973;SDS011;8603;46.944;7.412;2023-07-24T12:17:38;6.25;;;4.35;;
16973;SDS011;8603;46.944;7.412;2023-07-24T12:20:05;5.35;;;4.03;;
16973;SDS011;8603;46.944;7.412;2023-07-24T12:22:33;4.63;;;4.07;;
16973;SDS011;8603;46.944;7.412;2023-07-24T12:24:59;6.35;;;4.28;;
16973;SDS011;8603;46.944;7.412;2023-07-24T12:27:25;5.78;;;4.57;;
16973;SDS011;8603;46.944;7.412;2023-07-24T12:29:51;7.00;;;4.30;;
16973;SDS011;8603;46.944;7.412;2023-07-24T12:32:17;5.13;;;3.88;;
16973;SDS011;8603;46.944;7.412;2023-07-24T12:34:43;7.25;;;4.32;;
16973;SDS011;8603;46.944;7.412;2023-07-24T12:37:11;6.20;;;4.15;;
16973;SDS011;8603;46.944;7.412;2023-07-24T12:39:37;6.28;;;4.15;;
16973;SDS011;8603;46.944;7.412;2023-07-24T12:42:02;6.43;;;4.20;;
16973;SDS011;8603;46.944;7.412;2023-07-24T12:44:28;6.70;;;3.85;;
16973;SDS011;8603;46.944;7.412;2023-07-24T12:46:54;6.13;;;3.88;;
16973;SDS011;8603;46.944;7.412;2023-07-24T12:49:19;9.23;;;3.70;;
16973;SDS011;8603;46.944;7.412;2023-07-24T12:51:45;7.07;;;4.22;;
16973;SDS011;8603;46.944;7.412;2023-07-24T12:54:10;8.38;;;3.88;;
16973;SDS011;8603;46.944;7.412;2023-07-24T12:56:36;5.80;;;4.20;;
16973;SDS011;8603;46.944;7.412;2023-07-24T12:59:01;5.93;;;4.03;;
16973;SDS011;8603;46.944;7.412;2023-07-24T13:01:27;6.45;;;3.70;;
16973;SDS011;8603;46.944;7.412;2023-07-24T13:03:53;6.82;;;4.10;;
16973;SDS011;8603;46.944;7.412;2023-07-24T13:06:19;5.65;;;3.97;;
16973;SDS011;8603;46.944;7.412;2023-07-24T13:08:45;8.50;;;4.10;;
16973;SDS011;8603;46.944;7.412;2023-07-24T13:11:11;7.32;;;4.28;;
16973;SDS011;8603;46.944;7.412;2023-07-24T13:13:36;8.25;;;4.25;;
16973;SDS011;8603;46.944;7.412;2023-07-24T13:16:02;9.65;;;3.90;;
16973;SDS011;8603;46.944;7.412;2023-07-24T13:18:28;6.85;;;4.03;;
16973;SDS011;8603;46.944;7.412;2023-07-24T13:20:54;7.00;;;4.38;;
16973;SDS011;8603;46.944;7.412;2023-07-24T13:23:23;7.43;;;3.97;;
16973;SDS011;8603;46.944;7.412;2023-07-24T13:25:48;8.25;;;4.30;;
16973;SDS011;8603;46.944;7.412;2023-07-24T13:28:15;5.22;;;3.90;;
16973;SDS011;8603;46.944;7.412;2023-07-24T13:30:41;8.27;;;4.93;;
16973;SDS011;8603;46.944;7.412;2023-07-24T13:33:07;7.32;;;4.45;;
16973;SDS011;8603;46.944;7.412;2023-07-24T13:35:32;6.32;;;4.05;;
16973;SDS011;8603;46.944;7.412;2023-07-24T13:37:58;6.97;;;4.20;;
16973;SDS011;8603;46.944;7.412;2023-07-24T13:40:23;7.10;;;4.28;;
16973;SDS011;8603;46.944;7.412;2023-07-24T13:42:49;6.18;;;3.75;;
16973;SDS011;8603;46.944;7.412;2023-07-24T13:45:14;6.15;;;4.25;;
16973;SDS011;8603;46.944;7.412;2023-07-24T13:47:40;8.05;;;3.60;;
16973;SDS011;8603;46.944;7.412;2023-07-24T13:50:05;6.63;;;4.20;;
16973;SDS011;8603;46.944;7.412;2023-07-24T13:52:31;7.65;;;4.68;;
16973;SDS011;8603;46.944;7.412;2023-07-24T13:54:58;6.25;;;3.90;;
16973;SDS011;8603;46.944;7.412;2023-07-24T13:57:23;6.90;;;4.00;;
16973;SDS011;8603;46.944;7.412;2023-07-24T13:59:49;4.60;;;3.60;;
16973;SDS011;8603;46.944;7.412;2023-07-24T14:02:15;8.98;;;3.97;;
16973;SDS011;8603;46.944;7.412;2023-07-24T14:04:40;8.43;;;4.47;;
16973;SDS011;8603;46.944;7.412;2023-07-24T14:07:06;6.30;;;3.92;;
16973;SDS011;8603;46.944;7.412;2023-07-24T14:09:32;6.32;;;4.22;;
16973;SDS011;8603;46.944;7.412;2023-07-24T14:11:59;6.72;;;4.45;;
16973;SDS011;8603;46.944;7.412;2023-07-24T14:14:25;8.18;;;4.65;;
16973;SDS011;8603;46.944;7.412;2023-07-24T14:16:51;8.55;;;4.13;;
16973;SDS011;8603;46.944;7.412;2023-07-24T14:19:17;9.25;;;4.38;;
16973;SDS011;8603;46.944;7.412;2023-07-24T14:21:43;7.15;;;3.70;;
16973;SDS011;8603;46.944;7.412;2023-07-24T14:24:09;6.55;;;4.25;;
16973;SDS011;8603;46.944;7.412;2023-07-24T14:26:35;9.55;;;4.50;;
16973;SDS011;8603;46.944;7.412;2023-07-24T14:29:02;8.85;;;3.97;;
16973;SDS011;8603;46.944;7.412;2023-07-24T14:31:28;8.57;;;3.78;;
16973;SDS011;8603;46.944;7.412;2023-07-24T14:33:54;5.60;;;4.50;;
16973;SDS011;8603;46.944;7.412;2023-07-24T14:36:20;5.82;;;4.05;;
16973;SDS011;8603;46.944;7.412;2023-07-24T14:38:45;6.63;;;4.05;;
16973;SDS011;8603;46.944;7.412;2023-07-24T14:41:11;6.55;;;4.10;;
16973;SDS011;8603;46.944;7.412;2023-07-24T14:43:38;7.72;;;4.55;;
16973;SDS011;8603;46.944;7.412;2023-07-24T14:46:06;5.75;;;3.78;;
16973;SDS011;8603;46.944;7.412;2023-07-24T14:48:32;7.05;;;4.30;;
16973;SDS011;8603;46.944;7.412;2023-07-24T14:50:57;11.48;;;4.70;;
16973;SDS011;8603;46.944;7.412;2023-07-24T14:53:23;6.88;;;4.38;;
16973;SDS011;8603;46.944;7.412;2023-07-24T14:55:48;7.90;;;4.65;;
16973;SDS011;8603;46.944;7.412;2023-07-24T14:58:14;8.52;;;4.07;;
16973;SDS011;8603;46.944;7.412;2023-07-24T15:00:40;8.32;;;4.70;;
16973;SDS011;8603;46.944;7.412;2023-07-24T15:03:05;5.38;;;4.45;;